Time;durP1;ratioP1;P1;durP2;ratioP2;P2;SDS_P1;SDS_P2;PMS_P1;PMS_P2;Temp;Humidity;BMP_temperature;BMP_pressure;BME280_temperature;BME280_humidity;BME280_pressure;Samples;Min_cycle;Max_cycle;Signal;HPM_P1;HPM_P2
2023/05/25 00:01:58;;;;;;;10.10;5.30;;;12.00;99.90;;;;;;5031171;28;20235;-67
2023/05/25 00:04:25;;;;;;;9.90;5.40;;;12.10;99.90;;;;;;5021427;28;20196;-66
2023/05/25 00:06:52;;;;;;;9.40;5.07;;;12.10;99.90;;;;;;5034451;28;20205;-67
2023/05/25 00:09:17;;;;;;;9.80;5.93;;;12.20;99.90;;;;;;5031837;28;20719;-65
2023/05/25 00:11:43;;;;;;;13.33;6.10;;;12.20;99.90;;;;;;5035853;28;20234;-65
2023/05/25 00:14:09;;;;;;;11.97;5.57;;;12.10;99.90;;;;;;5034219;28;20338;-65
2023/05/25 00:16:36;;;;;;;8.83;5.43;;;12.10;99.90;;;;;;5031061;28;20303;-64
2023/05/25 00:19:04;;;;;;;8.33;5.63;;;11.90;99.90;;;;;;5037414;28;20790;-64
2023/05/25 00:21:32;;;;;;;8.57;5.40;;;12.00;99.90;;;;;;5039140;28;20553;-66
2023/05/25 00:23:58;;;;;;;11.70;5.87;;;11.90;99.90;;;;;;5038861;28;20275;-65
2023/05/25 00:26:24;;;;;;;8.93;5.60;;;11.80;99.90;;;;;;5039366;28;20311;-65
2023/05/25 00:28:50;;;;;;;7.63;5.57;;;11.80;99.90;;;;;;5039288;28;20206;-65
2023/05/25 00:31:15;;;;;;;10.53;5.33;;;11.70;99.90;;;;;;5033912;28;20947;-66
2023/05/25 00:33:41;;;;;;;8.33;5.87;;;11.70;99.90;;;;;;5032160;28;20287;-66
2023/05/25 00:36:07;;;;;;;8.53;5.57;;;11.60;99.90;;;;;;5038014;28;20686;-66
2023/05/25 00:38:33;;;;;;;8.90;5.00;;;11.60;99.90;;;;;;5036817;28;20727;-66
2023/05/25 00:40:58;;;;;;;9.97;5.63;;;11.60;99.90;;;;;;5034081;28;20212;-65
2023/05/25 00:43:24;;;;;;;8.83;5.10;;;11.60;99.90;;;;;;5038876;28;20275;-65
2023/05/25 00:45:50;;;;;;;9.33;5.77;;;11.60;99.90;;;;;;5031191;28;20349;-66
2023/05/25 00:48:16;;;;;;;8.03;5.97;;;11.70;99.90;;;;;;5033969;28;20209;-65
2023/05/25 00:50:44;;;;;;;8.90;5.37;;;11.70;99.90;;;;;;5039035;28;20202;-65
2023/05/25 00:53:12;;;;;;;7.03;5.23;;;11.70;99.90;;;;;;5038575;28;20232;-66
2023/05/25 00:55:48;;;;;;;9.63;5.33;;;11.60;99.90;;;;;;5038384;28;20288;-65
2023/05/25 00:58:16;;;;;;;10.47;6.13;;;11.70;99.90;;;;;;5031435;28;20202;-65
2023/05/25 01:00:44;;;;;;;9.80;5.67;;;11.70;99.90;;;;;;5038511;28;20230;-65
2023/05/25 01:03:16;;;;;;;9.07;5.60;;;11.60;99.90;;;;;;5038144;28;20656;-65
2023/05/25 01:05:44;;;;;;;10.13;5.73;;;11.60;99.90;;;;;;5031641;28;20294;-66
2023/05/25 01:08:12;;;;;;;7.83;5.50;;;11.60;99.90;;;;;;5036249;28;20207;-65
2023/05/25 01:10:39;;;;;;;18.27;5.93;;;11.60;99.90;;;;;;5038126;28;20225;-66
2023/05/25 01:13:08;;;;;;;8.00;4.80;;;11.60;99.90;;;;;;5037485;28;20258;-66
2023/05/25 01:15:34;;;;;;;9.23;5.90;;;11.60;99.90;;;;;;5036595;28;20199;-66
2023/05/25 01:18:00;;;;;;;10.10;5.93;;;11.50;99.90;;;;;;5023947;28;20247;-65
2023/05/25 01:20:30;;;;;;;11.80;6.70;;;11.50;99.90;;;;;;5033607;28;20254;-65
2023/05/25 01:22:58;;;;;;;10.10;5.17;;;11.50;99.90;;;;;;5033087;28;20222;-66
2023/05/25 01:25:38;;;;;;;8.77;5.33;;;11.50;99.90;;;;;;5036101;28;20208;-65
2023/05/25 01:28:23;;;;;;;10.40;6.10;;;11.60;99.90;;;;;;5036042;28;20251;-66
2023/05/25 01:30:49;;;;;;;9.33;6.23;;;11.50;99.90;;;;;;5024163;28;20195;-65
2023/05/25 01:33:17;;;;;;;7.40;5.80;;;11.50;99.90;;;;;;5027750;28;20298;-65
2023/05/25 01:35:45;;;;;;;11.87;5.50;;;11.50;99.90;;;;;;5025391;28;20211;-65
2023/05/25 01:38:11;;;;;;;9.53;5.47;;;11.50;99.90;;;;;;5028397;28;20237;-65
2023/05/25 01:40:37;;;;;;;8.20;5.17;;;11.40;99.90;;;;;;5028590;28;20215;-66
2023/05/25 01:43:02;;;;;;;8.83;6.40;;;11.40;99.90;;;;;;5033110;28;20241;-65
2023/05/25 01:45:28;;;;;;;6.23;5.50;;;11.40;99.90;;;;;;5028527;28;20196;-65
2023/05/25 01:47:54;;;;;;;9.03;5.77;;;11.40;99.90;;;;;;5027088;28;20222;-65
2023/05/25 01:50:35;;;;;;;13.50;5.30;;;11.40;99.90;;;;;;5022150;28;20253;-66
2023/05/25 01:53:09;;;;;;;6.93;5.67;;;11.40;99.90;;;;;;5031753;28;20205;-66
2023/05/25 01:55:45;;;;;;;9.43;5.50;;;11.40;99.90;;;;;;5021225;28;20206;-65
2023/05/25 01:58:14;;;;;;;9.37;6.10;;;11.40;99.90;;;;;;5028498;28;20294;-66
2023/05/25 02:00:40;;;;;;;12.33;5.40;;;11.40;99.90;;;;;;5025652;28;20203;-67
2023/05/25 02:03:06;;;;;;;10.80;6.53;;;11.40;99.90;;;;;;5022389;28;20212;-65
2023/05/25 02:05:31;;;;;;;9.30;6.07;;;11.40;99.90;;;;;;5027187;28;20209;-65
2023/05/25 02:07:57;;;;;;;11.97;6.50;;;11.40;99.90;;;;;;5026757;28;20202;-65
2023/05/25 02:10:22;;;;;;;8.27;5.50;;;11.30;99.90;;;;;;5027338;28;20201;-65
2023/05/25 02:12:48;;;;;;;11.70;5.67;;;11.40;99.90;;;;;;5025133;28;20203;-66
2023/05/25 02:15:14;;;;;;;8.77;6.10;;;11.40;99.90;;;;;;5030778;28;20208;-65
2023/05/25 02:17:40;;;;;;;8.40;6.23;;;11.40;99.90;;;;;;5027073;28;20202;-66
2023/05/25 02:20:07;;;;;;;8.60;6.07;;;11.40;99.90;;;;;;5025172;28;20210;-65
2023/05/25 02:22:32;;;;;;;11.07;5.77;;;11.40;99.90;;;;;;5028133;28;20245;-66
2023/05/25 02:24:58;;;;;;;10.87;6.70;;;11.40;99.90;;;;;;5027714;28;20654;-67
2023/05/25 02:27:23;;;;;;;8.97;6.83;;;11.30;99.90;;;;;;5026822;28;20275;-66
2023/05/25 02:29:49;;;;;;;7.03;5.23;;;11.30;99.90;;;;;;5026681;28;20294;-66
2023/05/25 02:32:15;;;;;;;7.93;5.30;;;11.30;99.90;;;;;;5030632;28;20230;-65
2023/05/25 02:34:40;;;;;;;9.70;5.47;;;11.20;99.90;;;;;;5027076;28;20217;-66
2023/05/25 02:37:06;;;;;;;6.63;5.30;;;11.10;99.90;;;;;;5029406;28;20264;-66
2023/05/25 02:39:31;;;;;;;9.73;5.43;;;11.00;99.90;;;;;;5021940;28;20614;-65
2023/05/25 02:41:57;;;;;;;6.70;5.73;;;11.00;99.90;;;;;;5026751;28;20214;-65
2023/05/25 02:44:22;;;;;;;8.63;6.17;;;11.10;99.90;;;;;;5026989;28;20201;-66
2023/05/25 02:46:48;;;;;;;11.17;6.73;;;11.10;99.90;;;;;;5026841;28;20556;-65
2023/05/25 02:49:13;;;;;;;10.87;5.97;;;11.10;99.90;;;;;;5026764;28;20222;-65
2023/05/25 02:51:39;;;;;;;11.03;5.90;;;11.10;99.90;;;;;;5025262;28;20213;-68
2023/05/25 02:54:05;;;;;;;11.27;5.77;;;11.20;99.90;;;;;;5026143;28;20303;-65
2023/05/25 02:56:31;;;;;;;9.83;6.83;;;11.10;99.90;;;;;;5026132;28;20233;-65
2023/05/25 02:58:56;;;;;;;8.93;6.03;;;11.10;99.90;;;;;;5026332;28;20939;-65
2023/05/25 03:01:24;;;;;;;8.93;6.10;;;11.10;99.90;;;;;;5025670;28;20288;-65
2023/05/25 03:03:51;;;;;;;9.67;6.27;;;11.10;99.90;;;;;;5024288;28;20232;-67
2023/05/25 03:06:17;;;;;;;7.30;6.07;;;11.10;99.90;;;;;;5029434;28;20590;-65
2023/05/25 03:08:42;;;;;;;7.07;5.80;;;11.10;99.90;;;;;;5025731;28;20293;-66
2023/05/25 03:11:08;;;;;;;8.43;6.60;;;11.10;99.90;;;;;;5024535;28;20200;-66
2023/05/25 03:13:34;;;;;;;8.93;5.93;;;11.10;99.90;;;;;;5026605;28;20222;-66
2023/05/25 03:15:59;;;;;;;9.73;6.63;;;11.10;99.90;;;;;;5026783;28;20193;-65
2023/05/25 03:18:25;;;;;;;11.33;7.17;;;11.10;99.90;;;;;;5023759;28;20241;-66
2023/05/25 03:20:51;;;;;;;8.73;6.70;;;11.10;99.90;;;;;;5031567;28;20293;-66
2023/05/25 03:23:16;;;;;;;10.50;6.50;;;11.20;99.90;;;;;;5035828;28;20232;-65
2023/05/25 03:25:42;;;;;;;8.83;6.57;;;11.20;99.90;;;;;;5027219;28;20298;-66
2023/05/25 03:28:07;;;;;;;14.70;6.60;;;11.20;99.90;;;;;;5025212;28;20210;-65
2023/05/25 03:30:33;;;;;;;7.80;6.00;;;11.20;99.90;;;;;;5026496;28;20204;-65
2023/05/25 03:32:58;;;;;;;14.17;6.67;;;11.10;99.90;;;;;;5030251;28;20202;-65
2023/05/25 03:35:24;;;;;;;11.70;6.73;;;11.10;99.90;;;;;;5025960;28;20683;-65
2023/05/25 03:37:49;;;;;;;9.53;7.17;;;11.10;99.90;;;;;;5026240;28;20229;-65
2023/05/25 03:40:15;;;;;;;10.30;6.70;;;11.30;99.90;;;;;;5026340;28;20210;-66
2023/05/25 03:42:40;;;;;;;10.13;6.70;;;11.30;99.90;;;;;;5026267;28;20209;-66
2023/05/25 03:45:08;;;;;;;12.17;6.87;;;11.30;99.90;;;;;;5024191;28;20225;-65
2023/05/25 03:47:35;;;;;;;11.00;7.57;;;11.20;99.90;;;;;;5025527;28;20790;-65
2023/05/25 03:50:00;;;;;;;10.87;7.37;;;11.50;99.90;;;;;;5030927;28;20200;-66
2023/05/25 03:52:26;;;;;;;10.03;7.13;;;11.60;99.90;;;;;;5022999;28;20195;-65
2023/05/25 03:54:51;;;;;;;9.23;6.83;;;11.80;99.90;;;;;;5029615;28;20672;-66
2023/05/25 03:57:17;;;;;;;9.57;6.93;;;11.60;99.90;;;;;;5029517;28;20678;-65
2023/05/25 03:59:42;;;;;;;16.87;7.33;;;11.50;99.90;;;;;;5028137;28;20197;-66
2023/05/25 04:02:08;;;;;;;9.80;7.67;;;11.40;99.90;;;;;;5029833;28;20218;-65
2023/05/25 04:04:33;;;;;;;13.00;7.47;;;11.40;99.90;;;;;;5029793;28;20251;-65
2023/05/25 04:06:59;;;;;;;12.07;6.93;;;11.30;99.90;;;;;;5029974;28;20945;-65
2023/05/25 04:09:25;;;;;;;12.80;7.80;;;11.30;99.90;;;;;;5030129;28;20611;-65
2023/05/25 04:11:50;;;;;;;14.23;8.27;;;11.40;99.90;;;;;;5028051;28;20273;-66
2023/05/25 04:14:16;;;;;;;12.43;7.97;;;11.40;99.90;;;;;;5028333;28;20213;-65
2023/05/25 04:16:41;;;;;;;10.50;7.43;;;11.40;99.90;;;;;;5029484;28;20286;-65
2023/05/25 04:19:07;;;;;;;9.13;6.90;;;11.40;99.90;;;;;;5032373;28;20524;-66
2023/05/25 04:21:32;;;;;;;10.07;7.87;;;11.30;99.90;;;;;;5038898;28;20629;-65
2023/05/25 04:23:58;;;;;;;12.77;6.90;;;11.30;99.90;;;;;;5039577;28;20236;-65
2023/05/25 04:26:25;;;;;;;15.70;8.03;;;11.30;99.90;;;;;;5037518;28;20232;-65
2023/05/25 04:28:53;;;;;;;11.23;7.80;;;11.40;99.90;;;;;;5035001;28;20304;-65
2023/05/25 04:31:19;;;;;;;10.73;6.90;;;11.30;99.90;;;;;;5039241;28;22716;-65
2023/05/25 04:33:44;;;;;;;16.80;9.10;;;11.30;99.90;;;;;;5035085;28;20207;-66
2023/05/25 04:36:10;;;;;;;13.87;8.00;;;11.30;99.90;;;;;;5034929;28;20252;-66
2023/05/25 04:38:36;;;;;;;12.40;7.97;;;11.30;99.90;;;;;;5034202;28;20232;-65
2023/05/25 04:41:01;;;;;;;11.07;7.73;;;11.30;99.90;;;;;;5037666;28;20947;-65
2023/05/25 04:43:28;;;;;;;16.43;8.50;;;11.20;99.90;;;;;;5039353;28;20206;-65
2023/05/25 04:45:55;;;;;;;16.57;8.33;;;11.30;99.90;;;;;;5039280;28;20270;-65
2023/05/25 04:48:21;;;;;;;16.40;8.83;;;11.30;99.90;;;;;;5036793;28;20202;-65
2023/05/25 04:50:47;;;;;;;17.97;8.37;;;11.30;99.90;;;;;;5038887;28;20195;-65
2023/05/25 04:53:12;;;;;;;12.47;7.87;;;11.20;99.90;;;;;;5036766;28;20208;-66
2023/05/25 04:55:38;;;;;;;15.80;9.30;;;11.20;99.90;;;;;;5035627;28;20209;-65
2023/05/25 04:58:04;;;;;;;14.43;7.97;;;11.20;99.90;;;;;;5039047;28;20299;-65
2023/05/25 05:00:30;;;;;;;13.90;8.60;;;11.30;99.90;;;;;;5038688;28;20293;-68
2023/05/25 05:02:57;;;;;;;19.63;9.43;;;11.30;99.90;;;;;;5032172;28;20232;-66
2023/05/25 05:05:23;;;;;;;11.73;8.80;;;11.40;99.90;;;;;;5038525;28;20213;-65
2023/05/25 05:07:49;;;;;;;14.80;10.07;;;11.30;99.90;;;;;;5038312;28;20576;-65
2023/05/25 05:10:14;;;;;;;13.03;9.27;;;11.30;99.90;;;;;;5033433;28;20237;-65
2023/05/25 05:12:40;;;;;;;15.43;9.70;;;11.40;99.90;;;;;;5034013;28;20312;-65
2023/05/25 05:15:06;;;;;;;17.03;9.77;;;11.40;99.90;;;;;;5038382;28;20209;-67
2023/05/25 05:17:31;;;;;;;18.67;9.40;;;11.50;99.90;;;;;;5036204;28;20210;-66
2023/05/25 05:19:57;;;;;;;18.80;9.77;;;11.60;99.90;;;;;;5038199;28;20252;-66
2023/05/25 05:22:22;;;;;;;14.97;9.43;;;11.60;99.90;;;;;;5037342;28;20214;-66
2023/05/25 05:24:48;;;;;;;12.53;9.20;;;11.70;99.90;;;;;;5034793;28;20191;-65
2023/05/25 05:27:14;;;;;;;13.30;10.73;;;11.80;99.90;;;;;;5036972;28;20263;-66
2023/05/25 05:29:40;;;;;;;18.97;9.80;;;11.70;99.90;;;;;;5031597;28;20206;-66
2023/05/25 05:32:06;;;;;;;18.90;10.37;;;11.80;99.90;;;;;;5037874;28;20210;-66
2023/05/25 05:34:32;;;;;;;17.87;11.10;;;11.80;99.90;;;;;;5037421;28;20221;-66
2023/05/25 05:36:59;;;;;;;19.87;11.73;;;11.90;99.90;;;;;;5037827;28;20283;-66
2023/05/25 05:39:25;;;;;;;17.03;10.13;;;12.00;99.90;;;;;;5037709;28;20209;-66
2023/05/25 05:41:51;;;;;;;17.17;9.37;;;12.10;99.90;;;;;;5037720;28;20296;-65
2023/05/25 05:44:16;;;;;;;19.60;11.10;;;12.10;99.90;;;;;;5028979;28;20306;-66
2023/05/25 05:46:42;;;;;;;11.53;9.53;;;12.20;99.90;;;;;;5033952;28;20232;-66
2023/05/25 05:49:07;;;;;;;18.23;10.20;;;12.10;99.90;;;;;;5037231;28;20202;-66
2023/05/25 05:51:33;;;;;;;15.93;9.50;;;12.20;99.90;;;;;;5034360;28;20360;-65
2023/05/25 05:53:58;;;;;;;16.50;11.23;;;12.20;99.90;;;;;;5035700;28;20199;-65
2023/05/25 05:56:25;;;;;;;14.70;9.77;;;12.30;99.90;;;;;;5036629;28;20226;-67
2023/05/25 05:58:52;;;;;;;18.80;10.43;;;12.30;99.90;;;;;;5023973;28;20203;-65
2023/05/25 06:01:17;;;;;;;16.80;9.77;;;12.50;99.90;;;;;;5032717;28;20213;-64
2023/05/25 06:03:44;;;;;;;14.50;10.07;;;12.60;99.90;;;;;;5032496;28;20207;-65
2023/05/25 06:06:10;;;;;;;18.07;9.50;;;12.70;99.90;;;;;;5036273;28;20213;-65
2023/05/25 06:08:35;;;;;;;14.83;9.57;;;12.70;99.90;;;;;;5036605;28;20198;-64
2023/05/25 06:11:01;;;;;;;17.07;9.30;;;12.80;99.90;;;;;;5031082;28;20194;-66
2023/05/25 06:13:26;;;;;;;16.20;10.13;;;12.90;99.90;;;;;;5031620;28;20828;-65
2023/05/25 06:15:52;;;;;;;18.17;9.83;;;12.90;99.90;;;;;;5036511;28;20201;-65
2023/05/25 06:18:17;;;;;;;15.97;9.73;;;13.00;99.90;;;;;;5037132;28;20199;-64
2023/05/25 06:20:43;;;;;;;15.60;8.83;;;13.10;99.90;;;;;;5037465;28;20693;-65
2023/05/25 06:23:11;;;;;;;12.37;9.30;;;13.30;99.90;;;;;;5030855;28;20222;-65
2023/05/25 06:25:36;;;;;;;10.70;9.53;;;13.40;99.90;;;;;;5023948;28;20272;-65
2023/05/25 06:28:02;;;;;;;15.47;10.73;;;13.50;99.90;;;;;;5026268;28;20214;-65
2023/05/25 06:30:28;;;;;;;14.93;9.77;;;13.70;99.90;;;;;;5024504;28;20192;-69
2023/05/25 06:32:53;;;;;;;16.40;9.80;;;13.80;99.90;;;;;;5028091;28;20230;-69
2023/05/25 06:35:19;;;;;;;19.90;10.37;;;13.80;99.90;;;;;;5024081;28;20723;-69
2023/05/25 06:37:46;;;;;;;13.73;7.87;;;13.80;99.90;;;;;;5023326;28;20233;-73
2023/05/25 06:40:12;;;;;;;19.43;10.20;;;13.80;99.90;;;;;;5028850;28;20800;-79
2023/05/25 06:42:37;;;;;;;16.40;10.17;;;13.80;99.90;;;;;;5028166;28;20214;-79
2023/05/25 06:45:06;;;;;;;15.37;9.80;;;13.90;99.90;;;;;;5027004;28;20203;-73
2023/05/25 06:47:31;;;;;;;15.70;11.63;;;14.00;99.90;;;;;;5021508;28;20261;-73
2023/05/25 06:49:57;;;;;;;17.60;9.13;;;14.10;99.90;;;;;;5026211;28;20195;-70
2023/05/25 06:52:22;;;;;;;16.80;10.07;;;14.20;99.90;;;;;;5026235;28;20692;-70
2023/05/25 06:54:48;;;;;;;16.63;9.33;;;14.60;99.90;;;;;;5026048;28;20372;-71
2023/05/25 06:57:14;;;;;;;14.50;10.63;;;14.90;99.90;;;;;;5027839;28;20256;-71
2023/05/25 06:59:39;;;;;;;19.13;9.87;;;15.00;99.90;;;;;;5028545;28;20575;-71
2023/05/25 07:02:05;;;;;;;15.93;9.47;;;14.90;99.90;;;;;;5024899;28;20305;-72
2023/05/25 07:04:31;;;;;;;16.97;10.40;;;14.90;99.90;;;;;;5027775;28;20188;-70
2023/05/25 07:06:57;;;;;;;17.63;10.23;;;14.80;99.90;;;;;;5027027;28;20199;-71
2023/05/25 07:09:23;;;;;;;16.53;10.53;;;14.80;99.90;;;;;;5023330;28;20617;-70
2023/05/25 07:11:48;;;;;;;19.40;9.33;;;15.00;99.90;;;;;;5024586;28;20207;-70
2023/05/25 07:14:16;;;;;;;16.80;9.03;;;15.20;99.90;;;;;;5025258;28;20211;-69
2023/05/25 07:16:43;;;;;;;20.03;8.60;;;15.40;99.90;;;;;;5028463;28;20199;-70
2023/05/25 07:19:10;;;;;;;16.63;8.00;;;15.60;99.90;;;;;;5034748;28;20260;-72
2023/05/25 07:21:35;;;;;;;11.50;6.80;;;15.50;99.90;;;;;;5022558;28;20215;-73
2023/05/25 07:24:01;;;;;;;15.30;6.73;;;15.50;99.90;;;;;;5024931;28;20191;-71
2023/05/25 07:26:27;;;;;;;14.33;7.10;;;15.60;99.90;;;;;;5025053;28;20563;-70
2023/05/25 07:28:53;;;;;;;13.73;6.63;;;15.70;99.90;;;;;;5023885;28;20195;-70
2023/05/25 07:31:18;;;;;;;11.97;6.93;;;15.70;99.90;;;;;;5024297;28;20277;-71
2023/05/25 07:33:44;;;;;;;13.23;6.57;;;15.90;99.90;;;;;;5022157;28;20854;-71
2023/05/25 07:36:10;;;;;;;12.93;6.03;;;16.00;99.90;;;;;;5021986;28;20199;-71
2023/05/25 07:38:35;;;;;;;11.83;5.47;;;16.00;99.90;;;;;;5031242;28;20230;-71
2023/05/25 07:41:01;;;;;;;9.07;5.47;;;15.90;99.90;;;;;;5035937;28;20804;-71
2023/05/25 07:43:27;;;;;;;13.93;5.90;;;16.00;99.90;;;;;;5030804;28;20217;-74
2023/05/25 07:45:53;;;;;;;10.00;5.53;;;16.10;99.90;;;;;;5022389;28;20191;-70
2023/05/25 07:48:18;;;;;;;10.40;5.57;;;16.20;99.90;;;;;;5024374;28;20248;-70
2023/05/25 07:50:44;;;;;;;11.77;6.00;;;16.30;99.90;;;;;;5026844;28;20194;-72
2023/05/25 07:53:09;;;;;;;11.93;5.57;;;16.30;99.90;;;;;;5023766;28;20649;-71
2023/05/25 07:55:35;;;;;;;9.83;5.47;;;16.40;99.90;;;;;;5027334;28;20202;-71
2023/05/25 07:58:00;;;;;;;11.07;4.50;;;16.30;99.90;;;;;;5023796;28;20206;-72
2023/05/25 08:00:26;;;;;;;8.13;5.30;;;16.30;99.90;;;;;;5017006;28;20215;-69
2023/05/25 08:02:52;;;;;;;11.17;4.97;;;16.50;99.90;;;;;;5018650;28;20217;-71
2023/05/25 08:05:17;;;;;;;11.27;4.63;;;16.50;99.90;;;;;;5020407;28;20204;-69
2023/05/25 08:07:45;;;;;;;9.67;6.30;;;16.50;99.90;;;;;;5020393;28;20199;-70
2023/05/25 08:10:10;;;;;;;12.73;5.60;;;16.50;99.90;;;;;;5023015;28;20200;-75
2023/05/25 08:12:36;;;;;;;9.73;4.83;;;16.70;99.90;;;;;;5029162;28;20730;-73
2023/05/25 08:15:01;;;;;;;10.97;4.63;;;16.80;99.90;;;;;;5018509;28;20658;-72
2023/05/25 08:17:27;;;;;;;10.13;5.87;;;16.80;99.90;;;;;;5025979;28;20210;-76
2023/05/25 08:19:56;;;;;;;8.10;5.00;;;16.90;99.90;;;;;;5024972;28;20215;-81
2023/05/25 08:22:22;;;;;;;12.43;5.07;;;16.80;99.90;;;;;;5026245;28;20210;-75
2023/05/25 08:24:47;;;;;;;16.90;5.07;;;17.00;99.90;;;;;;5025325;28;20198;-76
2023/05/25 08:27:12;;;;;;;10.63;4.90;;;17.00;99.90;;;;;;5023447;28;20260;-76
2023/05/25 08:29:38;;;;;;;16.07;6.00;;;16.80;99.90;;;;;;5021529;28;20198;-77
2023/05/25 08:32:04;;;;;;;11.87;6.67;;;16.80;99.90;;;;;;5022767;28;20233;-77
2023/05/25 08:34:29;;;;;;;9.00;5.43;;;16.90;99.90;;;;;;5024636;28;20624;-77
2023/05/25 08:36:58;;;;;;;12.33;5.23;;;16.80;99.90;;;;;;5024581;28;20218;-76
2023/05/25 08:39:24;;;;;;;9.10;4.50;;;16.90;99.90;;;;;;5025685;28;20243;-76
2023/05/25 08:41:52;;;;;;;8.67;5.60;;;17.00;99.90;;;;;;5029012;28;20246;-77
2023/05/25 08:44:18;;;;;;;7.90;4.43;;;17.10;99.90;;;;;;5036579;28;20285;-77
2023/05/25 08:46:47;;;;;;;9.87;3.97;;;17.00;99.90;;;;;;5039281;28;20273;-77
2023/05/25 08:49:14;;;;;;;11.53;5.17;;;17.00;99.90;;;;;;5035028;28;20713;-76
2023/05/25 08:51:46;;;;;;;9.53;4.87;;;16.90;99.90;;;;;;5031670;28;20202;-76
2023/05/25 08:54:13;;;;;;;8.83;4.47;;;16.80;99.90;;;;;;5034940;28;20203;-77
2023/05/25 08:56:47;;;;;;;10.87;5.27;;;16.80;99.90;;;;;;5039156;28;20240;-76
2023/05/25 08:59:36;;;;;;;5.90;4.27;;;17.00;99.90;;;;;;5030105;28;20591;-76
2023/05/25 09:02:24;;;;;;;11.07;4.80;;;17.10;99.90;;;;;;5031353;28;20303;-76
2023/05/25 09:04:50;;;;;;;8.30;4.47;;;17.20;99.00;;;;;;5031660;28;20232;-76
2023/05/25 09:07:16;;;;;;;7.63;4.37;;;17.20;99.40;;;;;;5031993;28;20195;-76
2023/05/25 09:09:42;;;;;;;5.97;4.73;;;17.10;99.90;;;;;;5032878;28;20409;-76
2023/05/25 09:12:08;;;;;;;11.43;5.17;;;17.20;99.40;;;;;;5029371;28;20759;-75
2023/05/25 09:14:36;;;;;;;12.33;6.53;;;17.30;99.30;;;;;;5028561;28;20428;-76
2023/05/25 09:17:01;;;;;;;11.30;6.27;;;17.40;99.40;;;;;;5029883;28;20298;-76
2023/05/25 09:19:27;;;;;;;11.13;5.13;;;17.50;99.90;;;;;;5025493;28;20745;-76
2023/05/25 09:21:52;;;;;;;11.67;5.17;;;17.40;99.90;;;;;;5027122;28;20753;-74
2023/05/25 09:24:18;;;;;;;7.33;4.70;;;17.50;99.80;;;;;;5028622;28;20194;-75
2023/05/25 09:26:48;;;;;;;6.30;3.70;;;17.50;99.00;;;;;;5028705;28;20191;-76
2023/05/25 09:29:15;;;;;;;8.87;4.33;;;17.60;99.30;;;;;;5028884;28;20940;-77
2023/05/25 09:31:41;;;;;;;6.77;4.10;;;17.60;99.50;;;;;;5025568;28;20200;-76
2023/05/25 09:34:15;;;;;;;8.40;4.90;;;17.40;99.90;;;;;;5029125;28;20612;-76
2023/05/25 09:36:41;;;;;;;9.53;4.83;;;17.30;99.60;;;;;;5028673;28;20229;-76
2023/05/25 09:39:10;;;;;;;8.43;4.13;;;17.30;99.50;;;;;;5028815;28;20199;-76
2023/05/25 09:41:42;;;;;;;7.47;4.43;;;17.40;98.60;;;;;;5023184;28;20677;-76
2023/05/25 09:44:08;;;;;;;8.10;3.77;;;17.40;98.10;;;;;;5029028;28;20209;-76
2023/05/25 09:46:37;;;;;;;6.37;3.67;;;17.40;97.90;;;;;;5027844;28;20214;-75
2023/05/25 09:49:07;;;;;;;8.47;4.20;;;17.40;97.10;;;;;;5021843;28;20686;-77
2023/05/25 09:51:35;;;;;;;10.10;4.00;;;17.50;99.00;;;;;;5025875;28;20226;-76
2023/05/25 09:54:07;;;;;;;10.00;3.83;;;17.60;97.90;;;;;;5035020;28;20337;-76
2023/05/25 09:56:32;;;;;;;9.27;3.93;;;17.70;97.60;;;;;;5027376;28;20195;-76
2023/05/25 09:58:58;;;;;;;9.67;4.63;;;17.70;96.80;;;;;;5025943;28;20200;-76
2023/05/25 10:01:24;;;;;;;9.47;5.13;;;17.70;97.20;;;;;;5028559;28;20286;-76
2023/05/25 10:03:50;;;;;;;8.80;4.30;;;17.80;99.00;;;;;;5026142;28;20278;-76
2023/05/25 10:06:16;;;;;;;7.23;3.83;;;17.80;98.40;;;;;;5029092;28;20221;-76
2023/05/25 10:08:47;;;;;;;9.27;4.83;;;17.80;98.30;;;;;;5031495;28;20195;-77
2023/05/25 10:11:13;;;;;;;8.63;4.93;;;18.00;98.30;;;;;;5022705;28;20199;-75
2023/05/25 10:13:39;;;;;;;7.33;5.07;;;18.00;98.30;;;;;;5037311;28;23922;-75
2023/05/25 10:16:08;;;;;;;5.03;4.53;;;18.20;98.80;;;;;;5037259;28;20261;-75
2023/05/25 10:18:39;;;;;;;6.53;5.00;;;18.00;98.50;;;;;;5037272;28;20932;-76
2023/05/25 10:21:07;;;;;;;9.07;4.80;;;18.00;98.50;;;;;;5022485;28;20257;-76
2023/05/25 10:23:56;;;;;;;6.87;5.27;;;17.80;98.40;;;;;;5034203;28;20804;-77
2023/05/25 10:26:25;;;;;;;8.03;4.27;;;17.80;98.30;;;;;;5031979;28;20210;-77
2023/05/25 10:28:55;;;;;;;9.60;4.87;;;17.90;98.40;;;;;;5037116;28;20203;-77
2023/05/25 10:31:20;;;;;;;8.07;4.23;;;18.00;96.40;;;;;;5034509;28;20683;-77
2023/05/25 10:33:47;;;;;;;7.33;4.90;;;17.80;96.20;;;;;;5036810;28;20218;-77
2023/05/25 10:36:13;;;;;;;7.03;5.10;;;17.80;97.00;;;;;;5036093;28;20225;-77
2023/05/25 10:38:39;;;;;;;5.57;4.17;;;17.80;98.10;;;;;;5032585;28;20250;-77
2023/05/25 10:41:07;;;;;;;8.03;4.13;;;17.90;97.50;;;;;;5034772;28;20864;-77
2023/05/25 10:43:33;;;;;;;11.60;4.83;;;18.00;96.90;;;;;;5024742;28;20210;-77
2023/05/25 10:45:59;;;;;;;7.50;4.43;;;18.00;96.50;;;;;;5027201;28;20207;-77
2023/05/25 10:48:35;;;;;;;8.23;4.53;;;18.10;97.60;;;;;;5026005;28;20206;-76
2023/05/25 10:51:00;;;;;;;9.50;5.53;;;18.10;97.20;;;;;;5025647;28;20217;-78
2023/05/25 10:53:26;;;;;;;8.97;5.23;;;18.20;97.40;;;;;;5030030;28;20199;-77
2023/05/25 10:55:51;;;;;;;7.87;4.80;;;18.30;97.30;;;;;;5027036;28;20206;-76
2023/05/25 10:58:19;;;;;;;6.83;4.23;;;18.50;97.10;;;;;;5023832;28;20207;-78
2023/05/25 11:01:07;;;;;;;6.73;4.33;;;18.50;97.10;;;;;;5027174;28;20594;-77
2023/05/25 11:03:52;;;;;;;10.50;4.43;;;18.50;97.30;;;;;;5022563;28;20279;-74
2023/05/25 11:06:22;;;;;;;7.87;4.80;;;18.90;95.50;;;;;;5020151;28;20191;-77
2023/05/25 11:08:58;;;;;;;12.07;4.97;;;18.90;95.50;;;;;;5023778;28;20195;-76
2023/05/25 11:11:42;;;;;;;7.40;5.20;;;19.10;95.60;;;;;;5026013;28;20198;-78
2023/05/25 11:14:31;;;;;;;13.27;5.67;;;19.30;96.40;;;;;;5024813;28;20295;-76
2023/05/25 11:17:13;;;;;;;8.00;4.73;;;19.70;94.80;;;;;;5023576;28;20195;-77
2023/05/25 11:19:42;;;;;;;7.80;4.50;;;19.80;95.40;;;;;;5021741;28;20674;-77
2023/05/25 11:22:21;;;;;;;9.67;4.67;;;19.90;94.90;;;;;;5027244;28;20217;-75
2023/05/25 11:24:48;;;;;;;8.10;3.93;;;20.10;94.10;;;;;;5023434;28;20569;-76
2023/05/25 11:27:14;;;;;;;9.70;5.00;;;19.90;94.30;;;;;;5026284;28;20265;-77
2023/05/25 11:29:39;;;;;;;4.20;3.77;;;19.80;94.30;;;;;;5026360;28;20204;-76
2023/05/25 11:32:14;;;;;;;7.83;5.63;;;19.60;95.00;;;;;;5026576;28;20214;-76
2023/05/25 11:34:45;;;;;;;10.07;4.50;;;19.60;94.50;;;;;;5024015;28;20207;-77
2023/05/25 11:37:21;;;;;;;7.27;4.53;;;19.60;94.90;;;;;;5025169;28;20231;-76
2023/05/25 11:39:51;;;;;;;9.43;4.87;;;20.10;94.30;;;;;;5025565;28;20659;-76
2023/05/25 11:42:19;;;;;;;10.17;5.80;;;20.20;94.60;;;;;;5025832;28;20220;-76
2023/05/25 11:44:44;;;;;;;7.27;5.13;;;19.80;95.10;;;;;;5025607;28;20203;-76
2023/05/25 11:47:17;;;;;;;7.87;5.30;;;19.30;95.10;;;;;;5026458;28;20215;-76
2023/05/25 11:49:45;;;;;;;10.47;4.97;;;19.50;95.40;;;;;;5023681;28;20745;-76
2023/05/25 11:52:21;;;;;;;6.73;5.40;;;19.60;96.40;;;;;;5025103;28;20707;-76
2023/05/25 11:54:47;;;;;;;7.70;5.23;;;19.50;95.70;;;;;;5022493;28;20551;-75
2023/05/25 11:57:15;;;;;;;10.63;5.07;;;19.60;95.80;;;;;;5015465;28;20258;-76
2023/05/25 11:59:49;;;;;;;9.63;6.03;;;19.50;96.40;;;;;;5016697;28;20661;-75
2023/05/25 12:02:16;;;;;;;10.27;5.37;;;19.60;96.20;;;;;;5016830;28;20575;-76
2023/05/25 12:05:00;;;;;;;11.20;5.63;;;19.70;96.00;;;;;;5013481;28;20227;-76
2023/05/25 12:07:27;;;;;;;15.03;5.23;;;19.80;95.90;;;;;;5014851;28;20206;-75
2023/05/25 12:10:12;;;;;;;11.47;6.53;;;19.70;96.20;;;;;;5018415;28;20344;-75
2023/05/25 12:12:44;;;;;;;10.90;6.57;;;19.30;97.70;;;;;;5018679;28;20197;-76
2023/05/25 12:15:30;;;;;;;9.07;6.23;;;19.10;98.00;;;;;;5026697;28;20298;-76
2023/05/25 12:17:55;;;;;;;12.20;6.47;;;19.20;99.10;;;;;;5022018;28;20213;-77
2023/05/25 12:20:21;;;;;;;10.60;5.93;;;19.50;99.00;;;;;;5022645;28;20204;-79
2023/05/25 12:22:47;;;;;;;9.63;5.93;;;19.90;97.90;;;;;;5022443;28;20303;-76
2023/05/25 12:25:17;;;;;;;14.40;7.30;;;20.20;97.40;;;;;;5018657;28;20614;-80
2023/05/25 12:27:42;;;;;;;8.63;5.53;;;20.10;96.50;;;;;;5023256;28;20608;-79
2023/05/25 12:30:09;;;;;;;9.63;6.00;;;20.30;96.60;;;;;;5021051;28;20200;-75
2023/05/25 12:32:53;;;;;;;8.33;6.30;;;20.60;96.40;;;;;;5021445;28;20212;-77
2023/05/25 12:35:18;;;;;;;10.13;5.60;;;21.00;96.00;;;;;;5029995;28;20575;-76
2023/05/25 12:37:45;;;;;;;10.97;5.83;;;21.20;95.90;;;;;;5023044;28;20229;-77
2023/05/25 12:40:22;;;;;;;10.07;6.33;;;21.00;95.50;;;;;;5024063;28;20205;-76
2023/05/25 12:42:56;;;;;;;9.17;5.67;;;21.00;95.40;;;;;;5033376;28;20223;-77